Weather at Pilot Station Airport

Public forecast

Using degrees Fahrenheit for public forecast. Weather courtesy of forecast.io.

Closest aviation weather report (METAR) to Pilot Station Airport

Closest report is St Mary's Airport, 13.6 nm (25.2 km) NW. Retrieved 2020/09/18 18:56 UTC (59 minutes ago):

PASM 181856Z AUTO 23017KT 10SM BKN014 OVC050 07/06 A2944 RMK AO2 RAE31 SLP978 P0001 T00670061

Closest aviation forecast (TAF) to Pilot Station Airport

Closest forecast is Bethel Airport, 75.8 nm (140.3 km) SSE. Retrieved 2020/09/18 18:42 UTC (1 hour ago):

TAF PABE 181740Z 1818/1918 21012KT P6SM -RA FEW045 BKN070 FM190400 23011KT P6SM -SHRA SCT025 BKN050